Details for Ryanair at EGSS




Go Back


Latest METAR
Local Time

EGSS 170850Z 26005KT 210V310 9999 FEW016 17/12 Q1020
17/08/2018, 10:02:13

Description
Results
Ryanair Logo
Number of Pilots based at EGSS
1 Pilots Based here
Number of Ryanair Flights Departed from EGSS
49 Flights Departed
Number of Ryanair Flights Arrived at EGSS
48 Flights Arrived
Number of Ryanair Schedules Departing from EGSS
415 Schedules
Number of Ryanair Schedules Arriving at EGSS
415 Schedules
Number of Ryanair Schedules Departing from EGSS availible today
190 Schedules Today
Number of Ryanair Schedules Arriving at EGSS availible today
190 Schedules Today
Average Landing Rate at EGSS
-221 fpm
Ryanair Average Landing Rate at EGSS
-203 fpm
Total Fuel Purchased at EGSS by Ryanair
156,212.40 kgs / 344,385.86 lbs

Pilots Based at EGSS


Pilot ID
Pilot Name
Pilot Rank
No. of Flights
No. of Flying Hours
Joerg Pfeiffer
40
53.05
Content